Time;durP1;ratioP1;P1;durP2;ratioP2;P2;SDS_P1;SDS_P2;PMS_P1;PMS_P2;Temp;Humidity;BMP_temperature;BMP_pressure;BME280_temperature;BME280_humidity;BME280_pressure;Samples;Min_cycle;Max_cycle;Signal;HPM_P1;HPM_P2
2021/05/24 00:02:19;;;;;;;1.52;1.08;;;;;;;;;;5016644;28;20065;-45
2021/05/24 00:04:45;;;;;;;2.55;1.05;;;;;;;;;;5019448;28;20040;-45
2021/05/24 00:07:10;;;;;;;1.55;1.02;;;;;;;;;;5017621;28;20044;-44
2021/05/24 00:09:36;;;;;;;1.25;0.80;;;;;;;;;;5020406;28;20103;-45
2021/05/24 00:12:02;;;;;;;3.33;1.05;;;;;;;;;;5018238;28;20042;-44
2021/05/24 00:14:29;;;;;;;3.88;1.40;;;;;;;;;;5015915;28;20044;-44
2021/05/24 00:16:54;;;;;;;2.78;1.58;;;;;;;;;;5016153;28;20033;-46
2021/05/24 00:19:20;;;;;;;2.05;1.40;;;;;;;;;;5016510;28;20041;-45
2021/05/24 00:21:45;;;;;;;1.35;1.02;;;;;;;;;;5014269;28;20089;-45
2021/05/24 00:24:10;;;;;;;1.95;0.95;;;;;;;;;;5014119;28;20026;-44
2021/05/24 00:26:36;;;;;;;4.55;1.63;;;;;;;;;;5016427;28;20518;-45
2021/05/24 00:29:01;;;;;;;3.13;1.38;;;;;;;;;;5019978;28;20045;-44
2021/05/24 00:31:26;;;;;;;1.95;1.50;;;;;;;;;;5015628;28;20504;-45
2021/05/24 00:33:52;;;;;;;3.03;1.48;;;;;;;;;;5016776;28;20029;-44
2021/05/24 00:36:17;;;;;;;2.35;0.82;;;;;;;;;;5014489;28;20042;-44
2021/05/24 00:38:42;;;;;;;1.77;0.98;;;;;;;;;;5014354;28;20558;-47
2021/05/24 00:41:07;;;;;;;4.05;1.45;;;;;;;;;;5013705;28;20038;-44
2021/05/24 00:43:33;;;;;;;3.28;0.88;;;;;;;;;;5019332;28;20045;-43
2021/05/24 00:45:58;;;;;;;4.38;1.63;;;;;;;;;;5015341;28;20391;-44
2021/05/24 00:48:23;;;;;;;2.60;0.98;;;;;;;;;;5013153;28;20037;-47
2021/05/24 00:50:49;;;;;;;4.35;2.10;;;;;;;;;;5015989;28;20503;-44
2021/05/24 00:53:14;;;;;;;0.80;0.52;;;;;;;;;;5013102;28;20037;-44
2021/05/24 00:55:39;;;;;;;1.20;0.45;;;;;;;;;;5012067;28;20034;-44
2021/05/24 00:58:05;;;;;;;0.68;0.50;;;;;;;;;;5017631;28;20443;-45
2021/05/24 01:00:35;;;;;;;0.88;0.43;;;;;;;;;;5017269;28;20491;-44
2021/05/24 01:03:01;;;;;;;2.72;0.40;;;;;;;;;;5013974;28;20103;-46
2021/05/24 01:05:27;;;;;;;1.25;0.60;;;;;;;;;;5013753;28;20041;-43
2021/05/24 01:07:52;;;;;;;0.98;0.47;;;;;;;;;;5014626;28;20049;-44
2021/05/24 01:10:18;;;;;;;10.52;0.65;;;;;;;;;;5014069;28;20037;-44
2021/05/24 01:12:44;;;;;;;12.82;1.25;;;;;;;;;;5015319;28;20033;-45
2021/05/24 01:15:09;;;;;;;0.50;0.35;;;;;;;;;;5013587;28;20091;-44
2021/05/24 01:17:35;;;;;;;0.32;0.20;;;;;;;;;;5016309;28;20022;-44
2021/05/24 01:20:00;;;;;;;0.35;0.20;;;;;;;;;;5017544;28;20030;-43
2021/05/24 01:22:25;;;;;;;0.75;0.32;;;;;;;;;;5017909;28;20036;-47
2021/05/24 01:24:51;;;;;;;0.80;0.43;;;;;;;;;;5015391;28;20377;-44
2021/05/24 01:27:17;;;;;;;17.00;2.05;;;;;;;;;;5017088;28;20065;-44
2021/05/24 01:29:42;;;;;;;1.88;0.47;;;;;;;;;;5020671;28;20030;-46
2021/05/24 01:32:08;;;;;;;2.67;1.25;;;;;;;;;;5016235;28;20038;-44
2021/05/24 01:34:34;;;;;;;0.52;0.10;;;;;;;;;;5020630;28;20034;-48
2021/05/24 01:37:00;;;;;;;1.27;0.70;;;;;;;;;;5020103;28;20061;-44
2021/05/24 01:39:25;;;;;;;0.77;0.68;;;;;;;;;;5020137;28;20033;-46
2021/05/24 01:41:51;;;;;;;0.77;0.47;;;;;;;;;;5015207;28;20036;-46
2021/05/24 01:44:26;;;;;;;1.08;0.40;;;;;;;;;;5018008;28;20664;-48
2021/05/24 01:46:51;;;;;;;0.80;0.32;;;;;;;;;;5017768;28;20038;-46
2021/05/24 01:49:16;;;;;;;0.60;0.40;;;;;;;;;;5018382;28;20045;-46
2021/05/24 01:51:42;;;;;;;6.32;2.20;;;;;;;;;;5021089;28;20052;-45
2021/05/24 01:54:07;;;;;;;1.23;0.90;;;;;;;;;;5017260;28;20037;-43
2021/05/24 01:56:32;;;;;;;0.90;0.68;;;;;;;;;;5019125;28;20121;-44
2021/05/24 01:58:57;;;;;;;1.05;0.60;;;;;;;;;;5018192;28;20084;-45
2021/05/24 02:01:23;;;;;;;0.77;0.40;;;;;;;;;;5017665;28;20749;-46
2021/05/24 02:03:48;;;;;;;0.68;0.63;;;;;;;;;;5016077;28;20076;-47
2021/05/24 02:06:13;;;;;;;2.33;0.52;;;;;;;;;;5019825;28;20029;-46
2021/05/24 02:08:39;;;;;;;1.42;0.88;;;;;;;;;;5015427;28;20065;-45
2021/05/24 02:11:04;;;;;;;6.80;1.02;;;;;;;;;;5019389;28;20034;-45
2021/05/24 02:13:30;;;;;;;1.20;0.60;;;;;;;;;;5020802;28;20075;-46
2021/05/24 02:15:55;;;;;;;1.83;0.85;;;;;;;;;;5021294;28;20061;-47
2021/05/24 02:18:21;;;;;;;0.85;0.47;;;;;;;;;;5025913;28;20401;-45
2021/05/24 02:20:47;;;;;;;5.85;0.93;;;;;;;;;;5022599;28;20037;-48
2021/05/24 02:23:12;;;;;;;1.20;0.63;;;;;;;;;;5021675;28;20064;-46
2021/05/24 02:25:37;;;;;;;1.48;1.33;;;;;;;;;;5018964;28;20057;-46
2021/05/24 02:28:04;;;;;;;0.75;0.57;;;;;;;;;;5022449;28;20030;-44
2021/05/24 02:30:29;;;;;;;1.00;0.57;;;;;;;;;;5019270;28;20087;-45
2021/05/24 02:32:55;;;;;;;0.75;0.68;;;;;;;;;;5020961;28;20033;-46
2021/05/24 02:35:21;;;;;;;0.32;0.30;;;;;;;;;;5022512;28;20038;-45
2021/05/24 02:37:47;;;;;;;1.40;0.98;;;;;;;;;;5020097;28;20026;-44
2021/05/24 02:40:14;;;;;;;2.63;0.93;;;;;;;;;;5020525;28;20120;-43
2021/05/24 02:42:39;;;;;;;7.57;1.38;;;;;;;;;;5021194;28;20085;-44
2021/05/24 02:45:06;;;;;;;1.10;0.80;;;;;;;;;;5023583;28;20044;-47
2021/05/24 02:47:31;;;;;;;4.47;1.17;;;;;;;;;;5019251;28;20153;-43
2021/05/24 02:49:57;;;;;;;1.55;0.50;;;;;;;;;;5017922;28;20129;-44
2021/05/24 02:52:22;;;;;;;1.52;0.57;;;;;;;;;;5020321;28;20040;-45
2021/05/24 02:54:47;;;;;;;0.55;0.40;;;;;;;;;;5019115;28;20073;-44
2021/05/24 02:57:13;;;;;;;0.40;0.40;;;;;;;;;;5018594;28;20454;-45
2021/05/24 02:59:38;;;;;;;1.80;0.68;;;;;;;;;;5019101;28;20037;-45
2021/05/24 03:02:06;;;;;;;0.65;0.40;;;;;;;;;;5024076;28;20036;-44
2021/05/24 03:04:32;;;;;;;0.40;0.30;;;;;;;;;;5020921;28;20033;-45
2021/05/24 03:06:57;;;;;;;3.92;0.50;;;;;;;;;;5022824;28;20510;-42
2021/05/24 03:09:22;;;;;;;0.80;0.65;;;;;;;;;;5021212;28;20087;-43
2021/05/24 03:11:48;;;;;;;1.42;0.45;;;;;;;;;;5021875;28;20021;-44
2021/05/24 03:14:13;;;;;;;1.05;0.77;;;;;;;;;;5018124;28;20025;-44
2021/05/24 03:16:38;;;;;;;2.38;0.40;;;;;;;;;;5021888;28;20491;-46
2021/05/24 03:19:04;;;;;;;1.05;0.75;;;;;;;;;;5021055;28;20495;-46
2021/05/24 03:21:29;;;;;;;0.77;0.28;;;;;;;;;;5021557;28;20029;-45
2021/05/24 03:23:55;;;;;;;0.20;0.20;;;;;;;;;;5017700;28;20072;-43
2021/05/24 03:26:20;;;;;;;1.75;0.75;;;;;;;;;;5019286;28;20061;-45
2021/05/24 03:28:45;;;;;;;1.15;0.68;;;;;;;;;;5020051;28;20033;-48
2021/05/24 03:31:11;;;;;;;3.83;0.80;;;;;;;;;;5022456;28;20038;-45
2021/05/24 03:33:36;;;;;;;1.58;0.82;;;;;;;;;;5019194;28;20026;-47
2021/05/24 03:36:02;;;;;;;2.90;0.93;;;;;;;;;;5018389;28;20042;-44
2021/05/24 03:38:27;;;;;;;2.65;1.35;;;;;;;;;;5019287;28;20037;-45
2021/05/24 03:40:53;;;;;;;4.95;0.75;;;;;;;;;;5019407;28;20157;-45
2021/05/24 03:43:20;;;;;;;1.77;0.47;;;;;;;;;;5021111;28;20034;-46
2021/05/24 03:45:45;;;;;;;0.35;0.25;;;;;;;;;;5022107;28;20037;-47
2021/05/24 03:48:10;;;;;;;2.55;0.47;;;;;;;;;;5017946;28;20040;-45
2021/05/24 03:50:36;;;;;;;2.22;0.85;;;;;;;;;;5021753;28;20026;-46
2021/05/24 03:53:01;;;;;;;0.45;0.30;;;;;;;;;;5021287;28;20061;-45
2021/05/24 03:55:27;;;;;;;2.03;0.52;;;;;;;;;;5018416;28;20478;-46
2021/05/24 03:57:54;;;;;;;2.05;0.68;;;;;;;;;;5016542;28;20029;-44
2021/05/24 04:00:20;;;;;;;1.27;0.68;;;;;;;;;;5018454;28;20505;-47
2021/05/24 04:02:45;;;;;;;0.77;0.50;;;;;;;;;;5023780;28;20163;-45
2021/05/24 04:05:31;;;;;;;1.50;0.68;;;;;;;;;;5018815;28;20607;-47
2021/05/24 04:07:58;;;;;;;0.40;0.40;;;;;;;;;;5019473;28;20041;-46
2021/05/24 04:10:39;;;;;;;0.47;0.45;;;;;;;;;;5020231;28;20073;-45
2021/05/24 04:13:04;;;;;;;;;;;;;;;;;;5014699;28;20030;-45
2021/05/24 04:15:31;;;;;;;13.73;1.00;;;;;;;;;;5021178;28;19906;-44
2021/05/24 04:17:59;;;;;;;0.57;0.28;;;;;;;;;;5020146;28;20243;-45
2021/05/24 04:20:25;;;;;;;0.52;0.30;;;;;;;;;;5019215;28;20510;-47
2021/05/24 04:22:50;;;;;;;3.17;0.73;;;;;;;;;;5017756;28;20076;-45
2021/05/24 04:25:16;;;;;;;7.90;0.63;;;;;;;;;;5017868;28;20049;-44
2021/05/24 04:27:41;;;;;;;0.93;0.50;;;;;;;;;;5020012;28;20116;-47
2021/05/24 04:30:08;;;;;;;4.03;1.42;;;;;;;;;;5019409;28;20036;-44
2021/05/24 04:32:33;;;;;;;1.65;0.57;;;;;;;;;;5018841;28;20026;-43
2021/05/24 04:34:58;;;;;;;1.35;0.80;;;;;;;;;;5020229;28;20030;-44
2021/05/24 04:37:24;;;;;;;1.83;0.73;;;;;;;;;;5015614;28;20495;-44
2021/05/24 04:39:49;;;;;;;1.10;0.70;;;;;;;;;;5018860;28;20036;-44
2021/05/24 04:42:15;;;;;;;46.78;25.13;;;;;;;;;;5020074;28;20042;-46
2021/05/24 04:44:40;;;;;;;4.68;2.10;;;;;;;;;;5017683;28;20483;-44
2021/05/24 04:47:05;;;;;;;5.57;1.10;;;;;;;;;;5017363;28;20063;-45
2021/05/24 04:49:31;;;;;;;1.45;1.00;;;;;;;;;;5018956;28;20033;-43
2021/05/24 04:51:58;;;;;;;2.90;0.80;;;;;;;;;;5020372;28;20105;-44
2021/05/24 04:54:23;;;;;;;6.65;2.00;;;;;;;;;;5019646;28;20505;-47
2021/05/24 04:56:48;;;;;;;2.45;1.13;;;;;;;;;;5015954;28;20109;-47
2021/05/24 04:59:14;;;;;;;3.83;0.95;;;;;;;;;;5020939;28;20038;-48
2021/05/24 05:01:39;;;;;;;1.30;0.70;;;;;;;;;;5016768;28;20034;-45
2021/05/24 05:04:06;;;;;;;1.45;0.98;;;;;;;;;;5022759;28;20656;-45
2021/05/24 05:06:31;;;;;;;0.73;0.50;;;;;;;;;;5018685;28;20482;-44
2021/05/24 05:08:56;;;;;;;1.05;0.43;;;;;;;;;;5018123;28;20030;-46
2021/05/24 05:11:22;;;;;;;2.83;1.58;;;;;;;;;;5020886;28;20025;-43
2021/05/24 05:13:47;;;;;;;1.30;0.80;;;;;;;;;;5018207;28;20566;-45
2021/05/24 05:16:12;;;;;;;0.40;0.22;;;;;;;;;;5018273;28;20501;-44
2021/05/24 05:18:38;;;;;;;1.67;0.60;;;;;;;;;;5022912;28;20124;-47
2021/05/24 05:21:04;;;;;;;1.08;0.68;;;;;;;;;;5018800;28;20034;-45
2021/05/24 05:23:29;;;;;;;3.75;1.23;;;;;;;;;;5018503;28;20458;-46
2021/05/24 05:25:54;;;;;;;3.70;0.73;;;;;;;;;;5017749;28;20057;-45
2021/05/24 05:28:23;;;;;;;0.90;0.50;;;;;;;;;;5020778;28;20030;-46
2021/05/24 05:30:49;;;;;;;1.25;0.93;;;;;;;;;;5017481;28;20380;-44
2021/05/24 05:33:14;;;;;;;1.13;0.68;;;;;;;;;;5018244;28;20091;-46
2021/05/24 05:35:42;;;;;;;1.75;0.80;;;;;;;;;;5018554;28;20041;-45
2021/05/24 05:38:07;;;;;;;2.80;0.90;;;;;;;;;;5019163;28;20025;-46
2021/05/24 05:40:33;;;;;;;0.88;0.60;;;;;;;;;;5022008;28;20095;-44
2021/05/24 05:42:58;;;;;;;0.47;0.47;;;;;;;;;;5019865;28;20523;-44
2021/05/24 05:45:24;;;;;;;1.25;0.50;;;;;;;;;;5020839;28;20580;-45
2021/05/24 05:47:49;;;;;;;2.88;0.65;;;;;;;;;;5017675;28;20566;-45
2021/05/24 05:50:14;;;;;;;1.65;0.80;;;;;;;;;;5017608;28;20031;-46
2021/05/24 05:52:40;;;;;;;7.40;1.02;;;;;;;;;;5019037;28;20045;-45
2021/05/24 05:55:06;;;;;;;0.93;0.70;;;;;;;;;;5016662;28;20480;-45
2021/05/24 05:57:31;;;;;;;3.35;1.13;;;;;;;;;;5018313;28;20053;-43
2021/05/24 05:59:56;;;;;;;1.40;0.90;;;;;;;;;;5020269;28;20471;-44
2021/05/24 06:02:22;;;;;;;2.05;1.15;;;;;;;;;;5021234;28;20518;-45
2021/05/24 06:04:47;;;;;;;1.23;1.05;;;;;;;;;;5017842;28;20037;-43
2021/05/24 06:07:13;;;;;;;5.53;0.88;;;;;;;;;;5018337;28;20545;-45
2021/05/24 06:09:38;;;;;;;1.75;1.13;;;;;;;;;;5018095;28;20037;-45
2021/05/24 06:12:03;;;;;;;2.50;1.20;;;;;;;;;;5017541;28;20032;-44
2021/05/24 06:14:29;;;;;;;3.13;1.02;;;;;;;;;;5018856;28;20034;-44
2021/05/24 06:16:54;;;;;;;0.90;0.68;;;;;;;;;;5021087;28;20677;-48
2021/05/24 06:19:19;;;;;;;1.25;0.77;;;;;;;;;;5018400;28;20125;-47
2021/05/24 06:21:44;;;;;;;15.60;1.40;;;;;;;;;;5015776;28;20038;-46
2021/05/24 06:24:10;;;;;;;2.33;1.08;;;;;;;;;;5002061;28;20383;-45
2021/05/24 06:26:36;;;;;;;1.17;1.00;;;;;;;;;;5020055;28;20050;-44
2021/05/24 06:29:01;;;;;;;2.67;1.50;;;;;;;;;;5016597;28;20406;-44
2021/05/24 06:31:27;;;;;;;4.85;2.40;;;;;;;;;;5012321;28;20046;-44
2021/05/24 06:33:52;;;;;;;2.63;1.52;;;;;;;;;;5015572;28;20030;-45
2021/05/24 06:36:17;;;;;;;2.35;1.42;;;;;;;;;;5018259;28;20572;-45
2021/05/24 06:38:43;;;;;;;3.08;0.80;;;;;;;;;;5019173;28;20033;-44
2021/05/24 06:41:08;;;;;;;3.10;1.75;;;;;;;;;;5015240;28;20112;-46
2021/05/24 06:43:33;;;;;;;6.60;1.25;;;;;;;;;;5017794;28;20087;-43
2021/05/24 06:45:59;;;;;;;2.08;1.58;;;;;;;;;;5017705;28;20730;-44
2021/05/24 06:48:24;;;;;;;19.58;11.25;;;;;;;;;;5018365;28;20029;-47
2021/05/24 06:50:49;;;;;;;18.50;12.10;;;;;;;;;;5014355;28;20044;-44
2021/05/24 06:53:15;;;;;;;5.22;3.17;;;;;;;;;;5014369;28;20136;-46
2021/05/24 06:55:40;;;;;;;4.97;2.65;;;;;;;;;;5016410;28;20457;-47
2021/05/24 06:58:05;;;;;;;9.63;4.15;;;;;;;;;;5015762;28;20037;-44
2021/05/24 07:00:31;;;;;;;9.13;5.28;;;;;;;;;;5016780;28;20048;-45
2021/05/24 07:02:56;;;;;;;11.20;9.20;;;;;;;;;;5018977;28;20060;-45
2021/05/24 07:05:21;;;;;;;45.88;41.08;;;;;;;;;;5018659;28;20133;-46
2021/05/24 07:07:47;;;;;;;73.00;62.88;;;;;;;;;;5017796;28;20456;-47
2021/05/24 07:10:14;;;;;;;86.18;76.85;;;;;;;;;;5018192;28;20155;-45
2021/05/24 07:12:39;;;;;;;204.70;177.50;;;;;;;;;;5020770;28;20570;-46
2021/05/24 07:15:05;;;;;;;137.45;122.38;;;;;;;;;;5021714;28;20043;-43
2021/05/24 07:17:31;;;;;;;78.22;63.95;;;;;;;;;;5016261;28;20018;-47
2021/05/24 07:19:56;;;;;;;67.78;51.83;;;;;;;;;;5016265;28;20491;-45
2021/05/24 07:22:21;;;;;;;93.30;65.95;;;;;;;;;;5018483;28;20029;-44
2021/05/24 07:24:47;;;;;;;547.08;443.98;;;;;;;;;;5019133;28;20029;-46
2021/05/24 07:27:12;;;;;;;388.73;300.50;;;;;;;;;;5017764;28;20128;-43
2021/05/24 07:29:37;;;;;;;133.10;106.82;;;;;;;;;;5015030;28;20133;-44
2021/05/24 07:32:08;;;;;;;34.13;27.80;;;;;;;;;;5017530;28;20029;-47
2021/05/24 07:34:33;;;;;;;14.97;12.73;;;;;;;;;;5019973;28;20040;-45
2021/05/24 07:36:59;;;;;;;7.07;4.03;;;;;;;;;;5015560;28;20030;-45
2021/05/24 07:39:25;;;;;;;8.32;2.83;;;;;;;;;;5020431;28;20042;-46
2021/05/24 07:41:50;;;;;;;7.50;2.38;;;;;;;;;;5016157;28;20026;-46
2021/05/24 07:44:15;;;;;;;3.10;1.02;;;;;;;;;;5017920;28;20033;-47
2021/05/24 07:46:41;;;;;;;3.13;2.28;;;;;;;;;;5017112;28;20506;-44
2021/05/24 07:49:06;;;;;;;2.03;1.27;;;;;;;;;;5015391;28;20119;-45
2021/05/24 07:51:31;;;;;;;2.67;0.50;;;;;;;;;;5018239;28;20057;-44
2021/05/24 07:53:57;;;;;;;2.42;1.58;;;;;;;;;;5017335;28;20041;-45
2021/05/24 07:56:22;;;;;;;6.30;0.88;;;;;;;;;;5014715;28;20044;-45
2021/05/24 07:58:47;;;;;;;3.13;0.80;;;;;;;;;;5016082;28;20091;-46
2021/05/24 08:01:13;;;;;;;6.47;1.25;;;;;;;;;;5014705;28;20557;-44
2021/05/24 08:03:38;;;;;;;3.63;1.42;;;;;;;;;;5016980;28;20138;-45
2021/05/24 08:06:03;;;;;;;3.00;1.40;;;;;;;;;;5013177;28;20032;-47
2021/05/24 08:08:29;;;;;;;5.90;1.63;;;;;;;;;;5015319;28;20030;-47
2021/05/24 08:10:54;;;;;;;33.17;22.58;;;;;;;;;;5012190;28;20121;-48
2021/05/24 08:13:19;;;;;;;4.38;3.38;;;;;;;;;;5015353;28;20160;-49
2021/05/24 08:15:45;;;;;;;5.05;1.25;;;;;;;;;;5015383;28;20376;-44
2021/05/24 08:18:10;;;;;;;5.25;1.65;;;;;;;;;;5015182;28;20569;-44
2021/05/24 08:20:36;;;;;;;2.40;1.05;;;;;;;;;;5014242;28;20414;-44
2021/05/24 08:23:02;;;;;;;6.47;1.27;;;;;;;;;;5016815;28;20037;-45
2021/05/24 08:25:27;;;;;;;6.35;1.30;;;;;;;;;;5016372;28;20515;-46
2021/05/24 08:27:52;;;;;;;3.15;1.00;;;;;;;;;;5014180;28;20514;-46
2021/05/24 08:30:18;;;;;;;3.75;1.48;;;;;;;;;;5013042;28;20068;-41
2021/05/24 08:32:43;;;;;;;2.00;1.05;;;;;;;;;;5015188;28;20030;-44
2021/05/24 08:35:10;;;;;;;2.85;1.60;;;;;;;;;;5015232;28;20053;-42
2021/05/24 08:37:35;;;;;;;3.55;1.23;;;;;;;;;;5013256;28;20403;-42
2021/05/24 08:40:01;;;;;;;4.55;2.47;;;;;;;;;;5013045;28;20491;-43
2021/05/24 08:42:31;;;;;;;3.42;1.65;;;;;;;;;;5013514;28;20388;-42
2021/05/24 08:44:56;;;;;;;5.07;1.85;;;;;;;;;;5015143;28;20125;-41
2021/05/24 08:47:22;;;;;;;2.25;1.27;;;;;;;;;;4996442;28;20121;-44
2021/05/24 08:49:48;;;;;;;5.65;3.08;;;;;;;;;;5014513;28;20065;-43
2021/05/24 08:52:14;;;;;;;2.53;1.35;;;;;;;;;;5013172;28;20491;-43
2021/05/24 08:54:39;;;;;;;3.05;2.00;;;;;;;;;;5013781;28;20045;-42
2021/05/24 08:57:05;;;;;;;9.88;3.78;;;;;;;;;;5016395;28;20033;-43
2021/05/24 08:59:30;;;;;;;10.05;4.97;;;;;;;;;;5012861;28;20644;-41
2021/05/24 09:01:56;;;;;;;27.95;7.15;;;;;;;;;;5013628;28;20047;-42
2021/05/24 09:04:37;;;;;;;12.10;3.47;;;;;;;;;;5015627;28;20030;-44
2021/05/24 09:07:02;;;;;;;4.20;1.90;;;;;;;;;;5012941;28;20061;-43
2021/05/24 09:09:27;;;;;;;7.10;2.28;;;;;;;;;;5013822;28;20124;-41
2021/05/24 09:11:54;;;;;;;3.13;1.58;;;;;;;;;;5017637;28;20037;-41
2021/05/24 09:14:20;;;;;;;6.43;1.20;;;;;;;;;;5015888;28;20049;-42
2021/05/24 09:16:55;;;;;;;3.22;2.00;;;;;;;;;;5013754;28;20030;-42
2021/05/24 09:19:21;;;;;;;3.88;2.30;;;;;;;;;;5014798;28;20034;-42
2021/05/24 09:22:07;;;;;;;3.25;1.42;;;;;;;;;;5012720;28;20041;-46
2021/05/24 09:24:37;;;;;;;14.90;2.25;;;;;;;;;;5010587;28;20088;-48
2021/05/24 09:27:03;;;;;;;2.40;1.50;;;;;;;;;;5010113;28;20654;-42
2021/05/24 09:29:42;;;;;;;1.92;1.27;;;;;;;;;;5011566;28;20162;-41
2021/05/24 09:32:18;;;;;;;1.90;1.15;;;;;;;;;;5012330;28;20112;-42
2021/05/24 09:34:45;;;;;;;3.20;1.30;;;;;;;;;;5009047;28;20057;-41
2021/05/24 09:37:11;;;;;;;1.10;0.88;;;;;;;;;;5011866;28;20352;-41
2021/05/24 09:39:37;;;;;;;1.65;1.00;;;;;;;;;;5014404;28;20574;-43
2021/05/24 09:42:07;;;;;;;11.77;3.65;;;;;;;;;;5015002;28;20048;-41
2021/05/24 09:44:33;;;;;;;4.97;1.98;;;;;;;;;;5012351;28;20034;-40
2021/05/24 09:46:58;;;;;;;5.35;1.48;;;;;;;;;;5021590;28;20044;-43
2021/05/24 09:49:24;;;;;;;1.80;1.15;;;;;;;;;;5015929;28;20124;-41
2021/05/24 09:51:51;;;;;;;12.73;2.67;;;;;;;;;;5014834;28;20038;-41
2021/05/24 09:54:16;;;;;;;2.58;1.90;;;;;;;;;;5017824;28;20081;-44
2021/05/24 09:56:47;;;;;;;2.20;1.65;;;;;;;;;;5014924;28;20054;-42
2021/05/24 09:59:13;;;;;;;;;;;;;;;;;;5017275;28;20060;-43
2021/05/24 10:01:42;;;;;;;2.42;1.73;;;;;;;;;;5012518;28;19972;-41
2021/05/24 10:04:09;;;;;;;1.98;1.45;;;;;;;;;;5013748;28;20112;-41
2021/05/24 10:06:34;;;;;;;13.93;2.67;;;;;;;;;;5017691;28;20034;-44
2021/05/24 10:09:00;;;;;;;1.85;1.08;;;;;;;;;;5015095;28;20402;-39
2021/05/24 10:11:26;;;;;;;4.60;2.05;;;;;;;;;;5015748;28;20034;-42
2021/05/24 10:13:52;;;;;;;6.30;2.38;;;;;;;;;;5015206;28;20053;-41
2021/05/24 10:16:18;;;;;;;13.52;3.53;;;;;;;;;;5012784;28;20042;-42
2021/05/24 10:18:44;;;;;;;2.28;0.70;;;;;;;;;;5014215;28;20025;-41
2021/05/24 10:21:09;;;;;;;1.15;0.60;;;;;;;;;;5014138;28;20034;-42
2021/05/24 10:23:35;;;;;;;1.48;0.93;;;;;;;;;;5018049;28;20029;-40
2021/05/24 10:26:01;;;;;;;6.40;1.30;;;;;;;;;;5013399;28;20046;-40
2021/05/24 10:28:27;;;;;;;4.75;2.58;;;;;;;;;;5014452;28;20125;-41
2021/05/24 10:30:57;;;;;;;3.65;2.65;;;;;;;;;;5010261;28;20125;-42
2021/05/24 10:33:25;;;;;;;16.05;1.65;;;;;;;;;;5012960;28;20034;-42
2021/05/24 10:35:51;;;;;;;3.97;1.83;;;;;;;;;;5015436;28;20646;-39
2021/05/24 10:38:22;;;;;;;1.38;0.77;;;;;;;;;;5018073;28;20040;-39
2021/05/24 10:40:48;;;;;;;4.32;1.55;;;;;;;;;;5020431;28;20076;-41
2021/05/24 10:43:17;;;;;;;1.65;0.95;;;;;;;;;;5014833;28;20556;-43
2021/05/24 10:45:42;;;;;;;4.82;1.48;;;;;;;;;;5017916;28;20061;-40
2021/05/24 10:48:08;;;;;;;3.08;1.27;;;;;;;;;;5017843;28;20536;-40
2021/05/24 10:50:35;;;;;;;7.32;2.15;;;;;;;;;;5019102;28;20038;-41
2021/05/24 10:53:03;;;;;;;1.60;0.88;;;;;;;;;;5018209;28;20087;-39
2021/05/24 10:55:29;;;;;;;2.40;0.75;;;;;;;;;;5020481;28;20037;-39
2021/05/24 10:58:14;;;;;;;12.77;1.23;;;;;;;;;;5019340;28;20040;-39
2021/05/24 11:01:01;;;;;;;2.78;1.52;;;;;;;;;;5019621;28;20486;-42
2021/05/24 11:03:27;;;;;;;1.13;0.60;;;;;;;;;;5015449;28;20076;-39
2021/05/24 11:06:18;;;;;;;3.83;1.20;;;;;;;;;;5017907;28;20065;-39
2021/05/24 11:08:59;;;;;;;2.50;1.02;;;;;;;;;;5013998;28;20488;-43
2021/05/24 11:11:25;;;;;;;1.73;0.82;;;;;;;;;;5015102;28;20044;-45
2021/05/24 11:13:52;;;;;;;14.48;1.50;;;;;;;;;;5018075;28;20112;-41
2021/05/24 11:16:18;;;;;;;2.92;0.73;;;;;;;;;;5017571;28;20038;-42
2021/05/24 11:18:44;;;;;;;15.23;1.80;;;;;;;;;;5015880;28;20072;-48
2021/05/24 11:21:20;;;;;;;2.85;1.92;;;;;;;;;;5016950;28;20038;-43
2021/05/24 11:26:22;;;;;;;2.92;1.77;;;;;;;;;;5018907;28;20064;-41
2021/05/24 11:28:52;;;;;;;5.93;2.13;;;;;;;;;;5016084;28;20030;-41
2021/05/24 11:31:22;;;;;;;8.63;1.20;;;;;;;;;;5019069;28;20064;-41
2021/05/24 11:33:48;;;;;;;1.90;1.17;;;;;;;;;;5018050;28;20038;-41
2021/05/24 11:36:15;;;;;;;1.23;0.70;;;;;;;;;;5015252;28;20038;-44
2021/05/24 11:39:01;;;;;;;3.35;0.98;;;;;;;;;;5020863;28;20657;-45
2021/05/24 11:41:30;;;;;;;1.25;0.68;;;;;;;;;;4996673;28;20066;-42
2021/05/24 11:43:56;;;;;;;0.52;0.45;;;;;;;;;;5019770;28;20064;-41
2021/05/24 11:46:22;;;;;;;1.05;0.70;;;;;;;;;;5016360;28;20505;-43
2021/05/24 11:48:49;;;;;;;1.90;1.23;;;;;;;;;;5016283;28;20034;-42
2021/05/24 11:51:16;;;;;;;3.65;0.80;;;;;;;;;;5018718;28;20043;-41
2021/05/24 11:54:00;;;;;;;1.70;1.00;;;;;;;;;;5014288;28;20499;-42
2021/05/24 11:56:34;;;;;;;2.35;1.05;;;;;;;;;;5016885;28;20133;-41
2021/05/24 11:59:00;;;;;;;4.63;1.15;;;;;;;;;;5013621;28;20030;-41
2021/05/24 12:01:26;;;;;;;1.85;0.45;;;;;;;;;;5017125;28;20029;-42
2021/05/24 12:03:52;;;;;;;8.00;0.60;;;;;;;;;;5019539;28;20030;-42
2021/05/24 12:06:18;;;;;;;4.35;1.95;;;;;;;;;;5014196;28;20037;-41
2021/05/24 12:08:46;;;;;;;10.45;2.13;;;;;;;;;;5016195;28;20025;-42
2021/05/24 12:11:13;;;;;;;1.65;1.10;;;;;;;;;;5017397;28;20026;-42
2021/05/24 12:13:58;;;;;;;17.90;1.63;;;;;;;;;;5016496;28;20125;-42
2021/05/24 12:16:24;;;;;;;2.63;1.38;;;;;;;;;;5015374;28;20541;-41
2021/05/24 12:18:53;;;;;;;0.60;0.60;;;;;;;;;;5015302;28;20030;-41
2021/05/24 12:21:39;;;;;;;2.33;0.50;;;;;;;;;;4999117;28;20084;-41
2021/05/24 12:24:06;;;;;;;1.45;0.93;;;;;;;;;;5015434;28;20033;-41
2021/05/24 12:26:32;;;;;;;1.27;0.70;;;;;;;;;;5018905;28;20066;-41
2021/05/24 12:28:59;;;;;;;0.98;0.63;;;;;;;;;;5015981;28;20494;-45
2021/05/24 12:31:24;;;;;;;1.88;0.63;;;;;;;;;;5014427;28;20041;-46
2021/05/24 12:33:50;;;;;;;1.90;0.85;;;;;;;;;;5018659;28;20449;-44
2021/05/24 12:36:22;;;;;;;8.52;0.50;;;;;;;;;;5017237;28;20037;-41
2021/05/24 12:38:52;;;;;;;1.48;0.70;;;;;;;;;;5016332;28;20119;-46
2021/05/24 12:41:19;;;;;;;2.47;1.42;;;;;;;;;;5014062;28;20402;-41
2021/05/24 12:43:49;;;;;;;2.05;0.77;;;;;;;;;;5013841;28;20037;-41
2021/05/24 12:46:16;;;;;;;1.10;0.70;;;;;;;;;;5016586;28;20030;-45
2021/05/24 12:48:42;;;;;;;0.88;0.73;;;;;;;;;;5015879;28;20038;-45
2021/05/24 12:51:15;;;;;;;3.05;1.25;;;;;;;;;;5015553;28;20451;-44
2021/05/24 12:53:41;;;;;;;25.25;3.28;;;;;;;;;;5017511;28;20029;-44
2021/05/24 12:56:08;;;;;;;9.27;1.13;;;;;;;;;;5015701;28;20706;-41
2021/05/24 12:58:37;;;;;;;7.30;2.05;;;;;;;;;;5018150;28;20259;-44
2021/05/24 13:01:04;;;;;;;3.38;2.00;;;;;;;;;;5017251;28;20116;-41
2021/05/24 13:03:39;;;;;;;3.83;1.13;;;;;;;;;;5016523;28;20037;-43
2021/05/24 13:06:06;;;;;;;10.68;0.90;;;;;;;;;;5017146;28;20040;-41
2021/05/24 13:08:31;;;;;;;2.92;0.65;;;;;;;;;;5018072;28;20061;-42
2021/05/24 13:11:01;;;;;;;2.80;1.17;;;;;;;;;;5018173;28;20061;-42
2021/05/24 13:13:27;;;;;;;11.70;2.03;;;;;;;;;;5017645;28;20140;-42
2021/05/24 13:15:57;;;;;;;3.10;1.20;;;;;;;;;;5018058;28;20116;-43
2021/05/24 13:29:02;;;;;;;2.13;1.15;;;;;;;;;;5016567;28;20063;-43
2021/05/24 13:31:38;;;;;;;7.57;5.63;;;;;;;;;;5015791;28;20490;-43
2021/05/24 13:34:06;;;;;;;2.65;1.58;;;;;;;;;;5019890;28;20025;-43
2021/05/24 13:36:33;;;;;;;4.80;0.77;;;;;;;;;;5019297;28;20067;-44
2021/05/24 13:39:13;;;;;;;2.83;1.00;;;;;;;;;;5020025;28;20025;-43
2021/05/24 13:41:39;;;;;;;6.30;0.63;;;;;;;;;;5017126;28;20030;-45
2021/05/24 13:44:06;;;;;;;3.40;1.10;;;;;;;;;;5016450;28;20047;-44
2021/05/24 13:46:32;;;;;;;1.08;0.98;;;;;;;;;;5014726;28;20033;-43
2021/05/24 13:48:57;;;;;;;0.50;0.30;;;;;;;;;;5017645;28;20032;-43
2021/05/24 13:51:23;;;;;;;2.00;0.60;;;;;;;;;;5017047;28;20025;-43
2021/05/24 13:53:49;;;;;;;1.67;1.05;;;;;;;;;;5016477;28;20124;-41
2021/05/24 13:56:14;;;;;;;2.40;0.85;;;;;;;;;;5017522;28;20028;-44
2021/05/24 13:58:39;;;;;;;0.75;0.50;;;;;;;;;;5018210;28;20037;-43
2021/05/24 14:01:05;;;;;;;1.58;0.45;;;;;;;;;;5016331;28;20030;-42
2021/05/24 14:03:31;;;;;;;1.38;0.40;;;;;;;;;;5019005;28;20041;-41
2021/05/24 14:05:56;;;;;;;0.50;0.30;;;;;;;;;;5018400;28;20052;-42
2021/05/24 14:08:22;;;;;;;4.70;0.43;;;;;;;;;;5021241;28;20045;-42
2021/05/24 14:10:47;;;;;;;3.22;1.30;;;;;;;;;;5022352;28;20038;-44
2021/05/24 14:13:16;;;;;;;3.22;1.08;;;;;;;;;;5022652;28;20040;-50
2021/05/24 14:15:41;;;;;;;5.55;1.20;;;;;;;;;;5021442;28;20104;-44
2021/05/24 14:18:06;;;;;;;1.58;0.73;;;;;;;;;;5019632;28;20716;-43
2021/05/24 14:20:32;;;;;;;7.07;1.13;;;;;;;;;;5018977;28;20048;-45
2021/05/24 14:22:57;;;;;;;4.03;0.85;;;;;;;;;;5017177;28;20036;-43
2021/05/24 14:25:22;;;;;;;2.33;1.52;;;;;;;;;;5015342;28;20065;-44
2021/05/24 14:27:47;;;;;;;0.70;0.45;;;;;;;;;;5018349;28;20037;-48
2021/05/24 14:30:14;;;;;;;0.80;0.35;;;;;;;;;;5019543;28;20042;-44
2021/05/24 14:32:39;;;;;;;2.85;0.70;;;;;;;;;;5021204;28;20026;-42
2021/05/24 14:35:05;;;;;;;5.43;0.65;;;;;;;;;;5021891;28;20498;-42
2021/05/24 14:37:30;;;;;;;0.50;0.50;;;;;;;;;;5022113;28;20112;-42
2021/05/24 14:39:56;;;;;;;0.77;0.43;;;;;;;;;;5021594;28;20141;-41
2021/05/24 14:42:21;;;;;;;1.65;0.52;;;;;;;;;;5022809;28;20589;-43
2021/05/24 14:44:46;;;;;;;0.30;0.30;;;;;;;;;;5020156;28;20034;-43
2021/05/24 14:47:13;;;;;;;1.42;0.88;;;;;;;;;;5022070;28;20041;-42
2021/05/24 14:49:38;;;;;;;1.20;0.85;;;;;;;;;;5019486;28;20588;-45
2021/05/24 14:52:06;;;;;;;1.00;0.32;;;;;;;;;;5021898;28;20025;-42